Terminal Aerodrome Forecast
Issued by NWS

Home | Current Version | Previous Version | Text Only | Print | Product List | Glossary Off
Versions: 1 2 3 4 5 6 7 8 9 10 11 12

866
FTUS43 KOAX 131720
TAFCDR
TAF
KCDR 131720Z 1318/1418 24007KT P6SM SCT080
     FM140100 VRB03KT P6SM BKN080=

USA.gov is the U.S. government's official web portal to all federal, state and local government web resources and services.